Towson, Maryland
Current Conditions -  °F | °C
As of 2:45 PM on Thursday 20 Nov 2014 (Local Time) from KMTN Reporting Station
Scattered Clouds Scattered Clouds  
Wind Chill: 52°   Ceiling: Unl
Heat Index: 52°   Visibility: 10mi
Dew Point: 25°   Wind: 6mph
Humidity: 35%   Direction: 240°WSW
Pressure: 29.9"   Gusts: NA
Location:  39.4°N, 76.6°W
Report Text: KMTN 201945Z 24005KT 10SM SCT070 11/M04 A2990
Loading
Personal Weather Stations






























Interactive Weather Map New forecast layout! Learn more

10-Day Weather Forecast

Advertisements
Track Severe Weather on mobile